Ballina, New South Wales

8:20 AM AEST on August 28, 2016 (GMT +1000)
Ballina | | Change Station

Elev 20 ft 28.87 °S, 153.55 °E | Updated 14 seconds ago

Clear
Clear
59.5 °F
Feels Like 59.5 °F
N
6.0
Wind Variable Wind from WSW
Gusts 13.0 mph

Today
High -- | Low -- °F
--% Chance of Precip.
Yesterday
High -- | Low -- °F
Precip. -- in
Pressure 30.24 in
Visibility 6.2 miles
Clouds
Dew Point 49 °F
Humidity 68%
Rainfall 0.00 in
Snow Depth Not available.
6:04 AM 5:29 PM
Waning Crescent, 21% visible
METAR YLIS 272200Z AUTO 36004KT 9999 // NCD 11/09 Q1024
Pressure 30.24 in
Visibility 6.2 miles
Clouds
Dew Point 49 °F
Humidity 68%
Rainfall 0.00 in
Snow Depth Not available.
6:04 AM 5:29 PM
Waning Crescent, 21% visible
METAR YLIS 272200Z AUTO 36004KT 9999 // NCD 11/09 Q1024

10-Day Weather Forecast

Almanac

Astronomy

Aug. 28, 2016 Rise Set
Actual Time
Civil Twilight
Nautical Twilight
Astronomical Twilight
Moon
Length of Visible Light
Length of Day
Tomorrow will be .
, % of the Moon is Illuminated

Today's Extremes

Country Highs Country Lows

Community

WunderPhotos

Upload Photos

1,935,455 photos uploaded!

WunderBlog® & News

Nearby

Air Quality

  Air Quality AQ Index Pollutant
Not available.

Snow Depth

Station Depth Elevation

Earthquake Activity

City Distance Mag. Time & Date
Minimum magnitude displayed is 2.5.

Coastal Water Temperatures

Place Temperature

Stations

Nearby Weather Stations

Station Location Temp. Windchill Dew Point Humidity Wind Precip. Elev Updated Type